sensor_id;sensor_type;location;lat;lon;timestamp;P1;durP1;ratioP1;P2;durP2;ratioP2
15633;SDS011;14654;48.898;8.308;2022-11-21T00:00:40;1.00;;;0.90;;
15633;SDS011;14654;48.898;8.308;2022-11-21T00:03:07;2.60;;;1.07;;
15633;SDS011;14654;48.898;8.308;2022-11-21T00:05:37;2.00;;;0.97;;
15633;SDS011;14654;48.898;8.308;2022-11-21T00:08:04;1.33;;;0.90;;
15633;SDS011;14654;48.898;8.308;2022-11-21T00:10:29;1.37;;;1.10;;
15633;SDS011;14654;48.898;8.308;2022-11-21T00:12:55;1.17;;;0.90;;
15633;SDS011;14654;48.898;8.308;2022-11-21T00:15:21;1.93;;;1.00;;
15633;SDS011;14654;48.898;8.308;2022-11-21T00:17:48;1.57;;;1.00;;
15633;SDS011;14654;48.898;8.308;2022-11-21T00:20:15;2.00;;;1.20;;
15633;SDS011;14654;48.898;8.308;2022-11-21T00:22:41;2.03;;;1.20;;
15633;SDS011;14654;48.898;8.308;2022-11-21T00:25:07;1.83;;;1.10;;
15633;SDS011;14654;48.898;8.308;2022-11-21T00:27:32;1.97;;;1.40;;
15633;SDS011;14654;48.898;8.308;2022-11-21T00:29:58;2.80;;;1.30;;
15633;SDS011;14654;48.898;8.308;2022-11-21T00:32:23;2.10;;;1.30;;
15633;SDS011;14654;48.898;8.308;2022-11-21T00:34:48;2.10;;;1.40;;
15633;SDS011;14654;48.898;8.308;2022-11-21T00:37:13;2.20;;;1.20;;
15633;SDS011;14654;48.898;8.308;2022-11-21T00:39:39;5.10;;;1.67;;
15633;SDS011;14654;48.898;8.308;2022-11-21T00:42:04;2.53;;;1.30;;
15633;SDS011;14654;48.898;8.308;2022-11-21T00:44:29;3.23;;;1.30;;
15633;SDS011;14654;48.898;8.308;2022-11-21T00:46:55;2.63;;;1.30;;
15633;SDS011;14654;48.898;8.308;2022-11-21T00:49:20;2.67;;;1.40;;
15633;SDS011;14654;48.898;8.308;2022-11-21T00:51:45;1.97;;;1.07;;
15633;SDS011;14654;48.898;8.308;2022-11-21T00:54:11;2.20;;;1.37;;
15633;SDS011;14654;48.898;8.308;2022-11-21T00:56:36;3.10;;;1.33;;
15633;SDS011;14654;48.898;8.308;2022-11-21T00:59:01;3.13;;;1.43;;
15633;SDS011;14654;48.898;8.308;2022-11-21T01:01:27;3.40;;;1.27;;
15633;SDS011;14654;48.898;8.308;2022-11-21T01:03:52;3.90;;;1.37;;
15633;SDS011;14654;48.898;8.308;2022-11-21T01:06:18;4.07;;;1.40;;
15633;SDS011;14654;48.898;8.308;2022-11-21T01:08:43;2.47;;;1.30;;
15633;SDS011;14654;48.898;8.308;2022-11-21T01:11:10;2.73;;;0.90;;
15633;SDS011;14654;48.898;8.308;2022-11-21T01:13:38;2.27;;;1.33;;
15633;SDS011;14654;48.898;8.308;2022-11-21T01:16:08;2.27;;;1.23;;
15633;SDS011;14654;48.898;8.308;2022-11-21T01:18:38;1.60;;;1.20;;
15633;SDS011;14654;48.898;8.308;2022-11-21T01:21:12;3.40;;;1.57;;
15633;SDS011;14654;48.898;8.308;2022-11-21T01:23:58;3.50;;;1.20;;
15633;SDS011;14654;48.898;8.308;2022-11-21T01:26:25;2.80;;;1.30;;
15633;SDS011;14654;48.898;8.308;2022-11-21T01:28:52;2.33;;;1.40;;
15633;SDS011;14654;48.898;8.308;2022-11-21T01:33:47;3.63;;;1.50;;
15633;SDS011;14654;48.898;8.308;2022-11-21T01:38:45;1.50;;;1.20;;
15633;SDS011;14654;48.898;8.308;2022-11-21T01:41:14;2.43;;;1.40;;
15633;SDS011;14654;48.898;8.308;2022-11-21T01:43:42;3.07;;;1.50;;
15633;SDS011;14654;48.898;8.308;2022-11-21T01:54:10;2.33;;;1.37;;
15633;SDS011;14654;48.898;8.308;2022-11-21T01:56:43;4.13;;;0.97;;
15633;SDS011;14654;48.898;8.308;2022-11-21T01:59:15;2.17;;;0.93;;
15633;SDS011;14654;48.898;8.308;2022-11-21T02:01:46;2.87;;;1.20;;
15633;SDS011;14654;48.898;8.308;2022-11-21T02:04:17;3.13;;;1.10;;
15633;SDS011;14654;48.898;8.308;2022-11-21T02:06:43;1.70;;;0.83;;
15633;SDS011;14654;48.898;8.308;2022-11-21T02:09:09;2.40;;;1.10;;
15633;SDS011;14654;48.898;8.308;2022-11-21T02:11:41;1.17;;;1.03;;
15633;SDS011;14654;48.898;8.308;2022-11-21T02:14:12;2.07;;;1.30;;
15633;SDS011;14654;48.898;8.308;2022-11-21T02:16:37;4.23;;;1.27;;
15633;SDS011;14654;48.898;8.308;2022-11-21T02:19:03;2.30;;;1.13;;
15633;SDS011;14654;48.898;8.308;2022-11-21T02:21:42;1.43;;;1.10;;
15633;SDS011;14654;48.898;8.308;2022-11-21T02:24:26;1.87;;;1.10;;
15633;SDS011;14654;48.898;8.308;2022-11-21T02:26:58;2.03;;;1.10;;
15633;SDS011;14654;48.898;8.308;2022-11-21T02:29:24;1.90;;;1.17;;
15633;SDS011;14654;48.898;8.308;2022-11-21T02:31:49;1.37;;;1.00;;
15633;SDS011;14654;48.898;8.308;2022-11-21T02:34:16;1.87;;;1.00;;
15633;SDS011;14654;48.898;8.308;2022-11-21T02:36:42;1.27;;;0.90;;
15633;SDS011;14654;48.898;8.308;2022-11-21T02:39:14;1.70;;;1.10;;
15633;SDS011;14654;48.898;8.308;2022-11-21T02:41:51;4.20;;;1.23;;
15633;SDS011;14654;48.898;8.308;2022-11-21T02:44:28;1.27;;;0.60;;
15633;SDS011;14654;48.898;8.308;2022-11-21T02:47:01;3.47;;;1.10;;
15633;SDS011;14654;48.898;8.308;2022-11-21T02:49:29;3.00;;;1.33;;
15633;SDS011;14654;48.898;8.308;2022-11-21T02:52:02;1.30;;;0.90;;
15633;SDS011;14654;48.898;8.308;2022-11-21T02:54:27;1.60;;;0.80;;
15633;SDS011;14654;48.898;8.308;2022-11-21T02:56:52;1.17;;;1.00;;
15633;SDS011;14654;48.898;8.308;2022-11-21T02:59:18;2.70;;;0.80;;
15633;SDS011;14654;48.898;8.308;2022-11-21T03:01:43;2.77;;;1.10;;
15633;SDS011;14654;48.898;8.308;2022-11-21T03:04:08;2.17;;;1.20;;
15633;SDS011;14654;48.898;8.308;2022-11-21T03:06:33;2.20;;;1.17;;
15633;SDS011;14654;48.898;8.308;2022-11-21T03:08:59;1.43;;;0.80;;
15633;SDS011;14654;48.898;8.308;2022-11-21T03:11:24;1.87;;;1.00;;
15633;SDS011;14654;48.898;8.308;2022-11-21T03:13:49;3.03;;;1.20;;
15633;SDS011;14654;48.898;8.308;2022-11-21T03:16:15;2.83;;;1.23;;
15633;SDS011;14654;48.898;8.308;2022-11-21T03:18:40;2.93;;;1.50;;
15633;SDS011;14654;48.898;8.308;2022-11-21T03:21:05;3.80;;;1.50;;
15633;SDS011;14654;48.898;8.308;2022-11-21T03:23:30;2.57;;;1.30;;
15633;SDS011;14654;48.898;8.308;2022-11-21T03:25:57;2.53;;;1.37;;
15633;SDS011;14654;48.898;8.308;2022-11-21T03:28:23;2.93;;;1.33;;
15633;SDS011;14654;48.898;8.308;2022-11-21T03:30:48;2.50;;;1.20;;
15633;SDS011;14654;48.898;8.308;2022-11-21T03:33:13;2.53;;;1.30;;
15633;SDS011;14654;48.898;8.308;2022-11-21T03:35:39;2.93;;;1.20;;
15633;SDS011;14654;48.898;8.308;2022-11-21T03:38:04;2.87;;;1.17;;
15633;SDS011;14654;48.898;8.308;2022-11-21T03:40:29;3.40;;;1.20;;
15633;SDS011;14654;48.898;8.308;2022-11-21T03:42:54;2.17;;;1.00;;
15633;SDS011;14654;48.898;8.308;2022-11-21T03:45:20;4.13;;;1.37;;
15633;SDS011;14654;48.898;8.308;2022-11-21T03:47:45;2.67;;;1.10;;
15633;SDS011;14654;48.898;8.308;2022-11-21T03:50:10;3.00;;;1.33;;
15633;SDS011;14654;48.898;8.308;2022-11-21T03:52:39;1.73;;;1.10;;
15633;SDS011;14654;48.898;8.308;2022-11-21T03:55:04;3.80;;;1.23;;
15633;SDS011;14654;48.898;8.308;2022-11-21T03:57:30;4.37;;;1.37;;
15633;SDS011;14654;48.898;8.308;2022-11-21T03:59:55;4.10;;;1.13;;
15633;SDS011;14654;48.898;8.308;2022-11-21T04:02:20;2.53;;;0.90;;
15633;SDS011;14654;48.898;8.308;2022-11-21T04:04:45;3.70;;;1.47;;
15633;SDS011;14654;48.898;8.308;2022-11-21T04:07:11;3.63;;;1.53;;
15633;SDS011;14654;48.898;8.308;2022-11-21T04:09:36;3.43;;;1.57;;
15633;SDS011;14654;48.898;8.308;2022-11-21T04:12:02;2.30;;;1.37;;
15633;SDS011;14654;48.898;8.308;2022-11-21T04:14:27;1.80;;;0.97;;
15633;SDS011;14654;48.898;8.308;2022-11-21T04:16:52;2.53;;;1.20;;
15633;SDS011;14654;48.898;8.308;2022-11-21T04:19:18;2.10;;;1.03;;
15633;SDS011;14654;48.898;8.308;2022-11-21T04:21:43;2.47;;;1.37;;
15633;SDS011;14654;48.898;8.308;2022-11-21T04:24:08;2.57;;;1.30;;
15633;SDS011;14654;48.898;8.308;2022-11-21T04:26:33;1.73;;;0.90;;
15633;SDS011;14654;48.898;8.308;2022-11-21T04:28:59;2.70;;;1.10;;
15633;SDS011;14654;48.898;8.308;2022-11-21T04:31:24;1.90;;;1.10;;
15633;SDS011;14654;48.898;8.308;2022-11-21T04:33:49;1.50;;;1.00;;
15633;SDS011;14654;48.898;8.308;2022-11-21T04:36:15;2.10;;;1.00;;
15633;SDS011;14654;48.898;8.308;2022-11-21T04:38:40;1.87;;;0.90;;
15633;SDS011;14654;48.898;8.308;2022-11-21T04:41:05;1.60;;;1.10;;
15633;SDS011;14654;48.898;8.308;2022-11-21T04:43:30;2.33;;;1.10;;
15633;SDS011;14654;48.898;8.308;2022-11-21T04:45:56;1.83;;;1.00;;
15633;SDS011;14654;48.898;8.308;2022-11-21T04:48:21;1.87;;;0.90;;
15633;SDS011;14654;48.898;8.308;2022-11-21T04:50:46;1.90;;;1.03;;
15633;SDS011;14654;48.898;8.308;2022-11-21T04:53:12;2.00;;;1.10;;
15633;SDS011;14654;48.898;8.308;2022-11-21T04:55:37;2.07;;;1.23;;
15633;SDS011;14654;48.898;8.308;2022-11-21T04:58:02;3.03;;;1.00;;
15633;SDS011;14654;48.898;8.308;2022-11-21T05:00:28;3.13;;;1.07;;
15633;SDS011;14654;48.898;8.308;2022-11-21T05:02:53;2.37;;;1.10;;
15633;SDS011;14654;48.898;8.308;2022-11-21T05:05:18;1.43;;;0.90;;
15633;SDS011;14654;48.898;8.308;2022-11-21T05:07:44;3.00;;;1.20;;
15633;SDS011;14654;48.898;8.308;2022-11-21T05:10:10;1.90;;;1.03;;
15633;SDS011;14654;48.898;8.308;2022-11-21T05:12:36;1.70;;;1.00;;
15633;SDS011;14654;48.898;8.308;2022-11-21T05:15:20;1.43;;;0.80;;
15633;SDS011;14654;48.898;8.308;2022-11-21T05:17:45;0.80;;;0.70;;
15633;SDS011;14654;48.898;8.308;2022-11-21T05:20:10;2.00;;;1.10;;
15633;SDS011;14654;48.898;8.308;2022-11-21T05:22:36;1.90;;;1.10;;
15633;SDS011;14654;48.898;8.308;2022-11-21T05:25:02;1.67;;;1.10;;
15633;SDS011;14654;48.898;8.308;2022-11-21T05:27:28;3.63;;;1.33;;
15633;SDS011;14654;48.898;8.308;2022-11-21T05:29:53;3.23;;;1.50;;
15633;SDS011;14654;48.898;8.308;2022-11-21T05:32:19;2.77;;;1.13;;
15633;SDS011;14654;48.898;8.308;2022-11-21T05:34:45;2.30;;;1.03;;
15633;SDS011;14654;48.898;8.308;2022-11-21T05:37:10;2.50;;;1.00;;
15633;SDS011;14654;48.898;8.308;2022-11-21T05:39:35;3.00;;;1.20;;
15633;SDS011;14654;48.898;8.308;2022-11-21T05:42:00;3.13;;;1.50;;
15633;SDS011;14654;48.898;8.308;2022-11-21T05:44:26;2.80;;;1.40;;
15633;SDS011;14654;48.898;8.308;2022-11-21T05:46:51;5.07;;;1.77;;
15633;SDS011;14654;48.898;8.308;2022-11-21T05:49:16;3.20;;;1.60;;
15633;SDS011;14654;48.898;8.308;2022-11-21T05:51:42;5.37;;;2.07;;
15633;SDS011;14654;48.898;8.308;2022-11-21T05:54:10;3.20;;;2.00;;
15633;SDS011;14654;48.898;8.308;2022-11-21T05:56:37;2.87;;;1.80;;
15633;SDS011;14654;48.898;8.308;2022-11-21T05:59:02;3.30;;;1.90;;
15633;SDS011;14654;48.898;8.308;2022-11-21T06:01:27;6.07;;;2.33;;
15633;SDS011;14654;48.898;8.308;2022-11-21T06:04:11;4.90;;;1.97;;
15633;SDS011;14654;48.898;8.308;2022-11-21T06:06:36;2.80;;;1.73;;
15633;SDS011;14654;48.898;8.308;2022-11-21T06:09:02;3.77;;;1.83;;
15633;SDS011;14654;48.898;8.308;2022-11-21T06:11:28;4.30;;;2.10;;
15633;SDS011;14654;48.898;8.308;2022-11-21T06:13:54;6.70;;;2.40;;
15633;SDS011;14654;48.898;8.308;2022-11-21T06:16:19;6.60;;;2.33;;
15633;SDS011;14654;48.898;8.308;2022-11-21T06:18:49;4.30;;;2.10;;
15633;SDS011;14654;48.898;8.308;2022-11-21T06:23:46;5.20;;;2.00;;
15633;SDS011;14654;48.898;8.308;2022-11-21T06:26:14;3.67;;;2.10;;
15633;SDS011;14654;48.898;8.308;2022-11-21T06:28:41;5.37;;;2.43;;
15633;SDS011;14654;48.898;8.308;2022-11-21T06:31:08;4.97;;;2.33;;
15633;SDS011;14654;48.898;8.308;2022-11-21T06:33:35;7.50;;;2.60;;
15633;SDS011;14654;48.898;8.308;2022-11-21T06:36:20;5.53;;;2.53;;
15633;SDS011;14654;48.898;8.308;2022-11-21T06:38:45;3.77;;;1.93;;
15633;SDS011;14654;48.898;8.308;2022-11-21T06:43:47;3.33;;;1.80;;
15633;SDS011;14654;48.898;8.308;2022-11-21T06:46:13;4.80;;;2.10;;
15633;SDS011;14654;48.898;8.308;2022-11-21T06:48:39;3.20;;;1.90;;
15633;SDS011;14654;48.898;8.308;2022-11-21T06:51:15;4.23;;;2.30;;
15633;SDS011;14654;48.898;8.308;2022-11-21T06:53:43;3.97;;;2.00;;
15633;SDS011;14654;48.898;8.308;2022-11-21T06:56:08;5.93;;;2.43;;
15633;SDS011;14654;48.898;8.308;2022-11-21T06:58:34;4.67;;;2.40;;
15633;SDS011;14654;48.898;8.308;2022-11-21T07:01:03;4.23;;;2.20;;
15633;SDS011;14654;48.898;8.308;2022-11-21T07:03:33;6.80;;;2.03;;
15633;SDS011;14654;48.898;8.308;2022-11-21T07:05:59;4.57;;;2.40;;
15633;SDS011;14654;48.898;8.308;2022-11-21T07:08:28;2.90;;;2.00;;
15633;SDS011;14654;48.898;8.308;2022-11-21T07:10:55;3.63;;;2.07;;
15633;SDS011;14654;48.898;8.308;2022-11-21T07:13:24;4.57;;;2.20;;
15633;SDS011;14654;48.898;8.308;2022-11-21T07:15:50;5.27;;;2.50;;
15633;SDS011;14654;48.898;8.308;2022-11-21T07:18:18;4.60;;;2.57;;
15633;SDS011;14654;48.898;8.308;2022-11-21T07:20:44;4.13;;;1.87;;
15633;SDS011;14654;48.898;8.308;2022-11-21T07:23:10;5.50;;;2.30;;
15633;SDS011;14654;48.898;8.308;2022-11-21T07:25:35;5.73;;;2.20;;
15633;SDS011;14654;48.898;8.308;2022-11-21T07:28:01;5.00;;;2.23;;
15633;SDS011;14654;48.898;8.308;2022-11-21T07:30:27;4.23;;;1.90;;
15633;SDS011;14654;48.898;8.308;2022-11-21T07:33:00;2.77;;;2.03;;
15633;SDS011;14654;48.898;8.308;2022-11-21T07:35:27;4.97;;;2.07;;
15633;SDS011;14654;48.898;8.308;2022-11-21T07:37:52;6.37;;;2.30;;
15633;SDS011;14654;48.898;8.308;2022-11-21T07:40:18;4.57;;;2.00;;
15633;SDS011;14654;48.898;8.308;2022-11-21T07:42:44;3.37;;;2.20;;
15633;SDS011;14654;48.898;8.308;2022-11-21T07:45:10;7.20;;;2.43;;
15633;SDS011;14654;48.898;8.308;2022-11-21T07:47:36;4.37;;;2.00;;
15633;SDS011;14654;48.898;8.308;2022-11-21T07:50:02;3.87;;;1.80;;
15633;SDS011;14654;48.898;8.308;2022-11-21T07:52:28;4.73;;;2.27;;
15633;SDS011;14654;48.898;8.308;2022-11-21T07:54:54;5.83;;;2.27;;
15633;SDS011;14654;48.898;8.308;2022-11-21T07:57:20;6.60;;;2.30;;
15633;SDS011;14654;48.898;8.308;2022-11-21T07:59:46;5.00;;;2.00;;
15633;SDS011;14654;48.898;8.308;2022-11-21T08:02:29;6.93;;;2.57;;
15633;SDS011;14654;48.898;8.308;2022-11-21T08:04:54;4.17;;;2.10;;
15633;SDS011;14654;48.898;8.308;2022-11-21T08:07:20;4.70;;;1.90;;
15633;SDS011;14654;48.898;8.308;2022-11-21T08:09:46;4.13;;;1.90;;
15633;SDS011;14654;48.898;8.308;2022-11-21T08:12:12;3.53;;;1.60;;
15633;SDS011;14654;48.898;8.308;2022-11-21T08:14:38;3.40;;;1.70;;
15633;SDS011;14654;48.898;8.308;2022-11-21T08:17:04;4.97;;;1.90;;
15633;SDS011;14654;48.898;8.308;2022-11-21T08:19:30;4.80;;;1.70;;
15633;SDS011;14654;48.898;8.308;2022-11-21T08:21:55;3.07;;;1.50;;
15633;SDS011;14654;48.898;8.308;2022-11-21T08:24:21;3.90;;;1.93;;
15633;SDS011;14654;48.898;8.308;2022-11-21T08:26:46;2.57;;;1.80;;
15633;SDS011;14654;48.898;8.308;2022-11-21T08:29:12;5.03;;;2.00;;
15633;SDS011;14654;48.898;8.308;2022-11-21T08:31:39;3.33;;;1.77;;
15633;SDS011;14654;48.898;8.308;2022-11-21T08:34:05;5.17;;;1.70;;
15633;SDS011;14654;48.898;8.308;2022-11-21T08:36:30;2.50;;;1.30;;
15633;SDS011;14654;48.898;8.308;2022-11-21T08:38:55;2.63;;;1.40;;
15633;SDS011;14654;48.898;8.308;2022-11-21T08:41:20;2.67;;;1.47;;
15633;SDS011;14654;48.898;8.308;2022-11-21T08:44:04;13.77;;;9.67;;
15633;SDS011;14654;48.898;8.308;2022-11-21T08:46:31;8.73;;;6.70;;
15633;SDS011;14654;48.898;8.308;2022-11-21T08:48:59;7.50;;;5.37;;
15633;SDS011;14654;48.898;8.308;2022-11-21T08:51:25;5.33;;;3.87;;
15633;SDS011;14654;48.898;8.308;2022-11-21T08:53:50;4.77;;;3.10;;
15633;SDS011;14654;48.898;8.308;2022-11-21T08:56:15;3.37;;;2.30;;
15633;SDS011;14654;48.898;8.308;2022-11-21T08:58:41;4.07;;;2.30;;
15633;SDS011;14654;48.898;8.308;2022-11-21T09:01:06;4.17;;;2.17;;
15633;SDS011;14654;48.898;8.308;2022-11-21T09:03:31;4.03;;;2.10;;
15633;SDS011;14654;48.898;8.308;2022-11-21T09:05:57;5.30;;;2.07;;
15633;SDS011;14654;48.898;8.308;2022-11-21T09:08:23;2.57;;;1.40;;
15633;SDS011;14654;48.898;8.308;2022-11-21T09:10:49;2.07;;;1.27;;
15633;SDS011;14654;48.898;8.308;2022-11-21T09:13:14;2.63;;;1.37;;
15633;SDS011;14654;48.898;8.308;2022-11-21T09:15:40;2.53;;;1.53;;
15633;SDS011;14654;48.898;8.308;2022-11-21T09:18:24;3.20;;;1.57;;
15633;SDS011;14654;48.898;8.308;2022-11-21T09:20:49;2.73;;;1.40;;
15633;SDS011;14654;48.898;8.308;2022-11-21T09:23:15;3.70;;;1.77;;
15633;SDS011;14654;48.898;8.308;2022-11-21T09:25:41;3.20;;;1.70;;
15633;SDS011;14654;48.898;8.308;2022-11-21T09:28:07;4.63;;;2.10;;
15633;SDS011;14654;48.898;8.308;2022-11-21T09:30:34;3.67;;;1.77;;
15633;SDS011;14654;48.898;8.308;2022-11-21T09:33:00;2.47;;;1.57;;
15633;SDS011;14654;48.898;8.308;2022-11-21T09:35:26;2.30;;;1.57;;
15633;SDS011;14654;48.898;8.308;2022-11-21T09:37:52;2.40;;;1.50;;
15633;SDS011;14654;48.898;8.308;2022-11-21T09:40:17;2.97;;;1.30;;
15633;SDS011;14654;48.898;8.308;2022-11-21T09:45:31;4.27;;;3.33;;
15633;SDS011;14654;48.898;8.308;2022-11-21T09:48:01;3.53;;;3.17;;
15633;SDS011;14654;48.898;8.308;2022-11-21T09:50:37;4.37;;;2.67;;
15633;SDS011;14654;48.898;8.308;2022-11-21T09:53:05;2.87;;;2.37;;
15633;SDS011;14654;48.898;8.308;2022-11-21T10:00:50;2.73;;;1.50;;
15633;SDS011;14654;48.898;8.308;2022-11-21T10:03:17;2.80;;;1.60;;
15633;SDS011;14654;48.898;8.308;2022-11-21T10:25:22;3.10;;;1.80;;
15633;SDS011;14654;48.898;8.308;2022-11-21T10:27:54;5.00;;;3.07;;
15633;SDS011;14654;48.898;8.308;2022-11-21T10:30:24;4.60;;;2.50;;
15633;SDS011;14654;48.898;8.308;2022-11-21T10:32:57;3.23;;;2.30;;
15633;SDS011;14654;48.898;8.308;2022-11-21T10:35:34;3.70;;;2.37;;
15633;SDS011;14654;48.898;8.308;2022-11-21T10:38:24;3.10;;;1.80;;
15633;SDS011;14654;48.898;8.308;2022-11-21T10:43:24;6.33;;;4.77;;
15633;SDS011;14654;48.898;8.308;2022-11-21T10:46:11;9.77;;;7.23;;
15633;SDS011;14654;48.898;8.308;2022-11-21T10:48:37;14.10;;;12.67;;
15633;SDS011;14654;48.898;8.308;2022-11-21T10:51:06;8.53;;;7.73;;
15633;SDS011;14654;48.898;8.308;2022-11-21T10:53:37;8.10;;;6.43;;
15633;SDS011;14654;48.898;8.308;2022-11-21T10:56:22;7.63;;;6.87;;
15633;SDS011;14654;48.898;8.308;2022-11-21T10:58:51;30.70;;;27.83;;
15633;SDS011;14654;48.898;8.308;2022-11-21T11:01:31;36.60;;;33.10;;
15633;SDS011;14654;48.898;8.308;2022-11-21T11:04:05;15.43;;;13.93;;
15633;SDS011;14654;48.898;8.308;2022-11-21T11:06:31;7.33;;;6.33;;
15633;SDS011;14654;48.898;8.308;2022-11-21T11:08:57;11.60;;;10.60;;
15633;SDS011;14654;48.898;8.308;2022-11-21T11:11:22;12.77;;;11.67;;
15633;SDS011;14654;48.898;8.308;2022-11-21T11:14:00;6.87;;;6.27;;
15633;SDS011;14654;48.898;8.308;2022-11-21T11:16:28;4.53;;;4.10;;
15633;SDS011;14654;48.898;8.308;2022-11-21T11:21:25;3.83;;;2.70;;
15633;SDS011;14654;48.898;8.308;2022-11-21T11:23:52;2.70;;;2.00;;
15633;SDS011;14654;48.898;8.308;2022-11-21T11:26:29;3.53;;;1.63;;
15633;SDS011;14654;48.898;8.308;2022-11-21T11:29:06;2.40;;;1.70;;
15633;SDS011;14654;48.898;8.308;2022-11-21T11:31:41;2.67;;;1.67;;
15633;SDS011;14654;48.898;8.308;2022-11-21T11:45:49;3.57;;;2.10;;
15633;SDS011;14654;48.898;8.308;2022-11-21T11:48:43;2.93;;;1.90;;
15633;SDS011;14654;48.898;8.308;2022-11-21T11:51:21;3.07;;;1.87;;
15633;SDS011;14654;48.898;8.308;2022-11-21T11:53:48;3.50;;;1.63;;
15633;SDS011;14654;48.898;8.308;2022-11-21T12:01:10;1.90;;;1.40;;
15633;SDS011;14654;48.898;8.308;2022-11-21T12:03:40;4.70;;;2.07;;
15633;SDS011;14654;48.898;8.308;2022-11-21T12:06:11;2.83;;;1.50;;
15633;SDS011;14654;48.898;8.308;2022-11-21T12:08:47;2.27;;;1.37;;
15633;SDS011;14654;48.898;8.308;2022-11-21T12:11:21;3.30;;;1.30;;
15633;SDS011;14654;48.898;8.308;2022-11-21T12:17:18;3.33;;;1.80;;
15633;SDS011;14654;48.898;8.308;2022-11-21T12:19:49;3.57;;;1.43;;
15633;SDS011;14654;48.898;8.308;2022-11-21T12:22:17;3.80;;;1.30;;
15633;SDS011;14654;48.898;8.308;2022-11-21T12:24:43;2.57;;;1.50;;
15633;SDS011;14654;48.898;8.308;2022-11-21T12:27:26;2.43;;;1.30;;
15633;SDS011;14654;48.898;8.308;2022-11-21T12:30:19;2.90;;;1.40;;
15633;SDS011;14654;48.898;8.308;2022-11-21T12:33:05;3.47;;;1.63;;
15633;SDS011;14654;48.898;8.308;2022-11-21T12:44:01;3.10;;;1.73;;
15633;SDS011;14654;48.898;8.308;2022-11-21T12:46:44;3.47;;;1.43;;
15633;SDS011;14654;48.898;8.308;2022-11-21T12:52:32;2.50;;;1.37;;
15633;SDS011;14654;48.898;8.308;2022-11-21T13:00:35;5.30;;;1.90;;
15633;SDS011;14654;48.898;8.308;2022-11-21T13:06:11;3.43;;;1.70;;
15633;SDS011;14654;48.898;8.308;2022-11-21T13:08:40;3.67;;;1.77;;
15633;SDS011;14654;48.898;8.308;2022-11-21T13:14:29;3.50;;;1.43;;
15633;SDS011;14654;48.898;8.308;2022-11-21T13:19:49;4.40;;;1.40;;
15633;SDS011;14654;48.898;8.308;2022-11-21T13:33:39;2.17;;;1.37;;
15633;SDS011;14654;48.898;8.308;2022-11-21T13:36:00;3.20;;;1.37;;
15633;SDS011;14654;48.898;8.308;2022-11-21T13:38:25;2.37;;;1.30;;
15633;SDS011;14654;48.898;8.308;2022-11-21T13:40:50;2.93;;;1.50;;
15633;SDS011;14654;48.898;8.308;2022-11-21T13:43:34;2.97;;;1.30;;
15633;SDS011;14654;48.898;8.308;2022-11-21T13:46:01;2.10;;;1.50;;
15633;SDS011;14654;48.898;8.308;2022-11-21T13:54:01;1.90;;;1.30;;
15633;SDS011;14654;48.898;8.308;2022-11-21T14:07:19;2.97;;;1.30;;
15633;SDS011;14654;48.898;8.308;2022-11-21T14:09:52;3.53;;;1.33;;
15633;SDS011;14654;48.898;8.308;2022-11-21T14:12:30;1.17;;;0.90;;
15633;SDS011;14654;48.898;8.308;2022-11-21T14:22:51;5.60;;;2.57;;
15633;SDS011;14654;48.898;8.308;2022-11-21T14:25:21;2.97;;;2.20;;
15633;SDS011;14654;48.898;8.308;2022-11-21T14:27:52;3.57;;;2.47;;
15633;SDS011;14654;48.898;8.308;2022-11-21T14:30:28;2.97;;;2.47;;
15633;SDS011;14654;48.898;8.308;2022-11-21T14:32:54;4.33;;;2.73;;
15633;SDS011;14654;48.898;8.308;2022-11-21T14:35:20;6.97;;;3.23;;
15633;SDS011;14654;48.898;8.308;2022-11-21T14:37:47;5.13;;;3.20;;
15633;SDS011;14654;48.898;8.308;2022-11-21T14:40:21;3.23;;;2.70;;
15633;SDS011;14654;48.898;8.308;2022-11-21T14:42:47;3.77;;;2.40;;
15633;SDS011;14654;48.898;8.308;2022-11-21T14:45:16;3.93;;;2.40;;
15633;SDS011;14654;48.898;8.308;2022-11-21T14:47:47;5.83;;;2.57;;
15633;SDS011;14654;48.898;8.308;2022-11-21T14:50:24;4.87;;;2.70;;
15633;SDS011;14654;48.898;8.308;2022-11-21T14:52:51;4.23;;;2.50;;
15633;SDS011;14654;48.898;8.308;2022-11-21T14:55:22;3.13;;;2.07;;
15633;SDS011;14654;48.898;8.308;2022-11-21T14:57:58;2.83;;;1.67;;
15633;SDS011;14654;48.898;8.308;2022-11-21T15:00:27;3.50;;;1.90;;
15633;SDS011;14654;48.898;8.308;2022-11-21T15:02:55;2.90;;;1.47;;
15633;SDS011;14654;48.898;8.308;2022-11-21T15:05:22;3.80;;;1.70;;
15633;SDS011;14654;48.898;8.308;2022-11-21T15:07:54;5.43;;;2.00;;
15633;SDS011;14654;48.898;8.308;2022-11-21T15:10:20;2.40;;;1.13;;
15633;SDS011;14654;48.898;8.308;2022-11-21T15:13:02;2.53;;;1.30;;
15633;SDS011;14654;48.898;8.308;2022-11-21T15:15:41;4.30;;;1.80;;
15633;SDS011;14654;48.898;8.308;2022-11-21T15:18:15;2.67;;;1.73;;
15633;SDS011;14654;48.898;8.308;2022-11-21T15:20:53;3.47;;;1.60;;
15633;SDS011;14654;48.898;8.308;2022-11-21T15:23:27;4.93;;;1.90;;
15633;SDS011;14654;48.898;8.308;2022-11-21T15:25:56;3.17;;;1.83;;
15633;SDS011;14654;48.898;8.308;2022-11-21T15:28:23;4.10;;;1.73;;
15633;SDS011;14654;48.898;8.308;2022-11-21T15:34:46;2.17;;;1.60;;
15633;SDS011;14654;48.898;8.308;2022-11-21T15:37:00;3.70;;;1.70;;
15633;SDS011;14654;48.898;8.308;2022-11-21T15:39:48;3.40;;;1.67;;
15633;SDS011;14654;48.898;8.308;2022-11-21T15:45:03;1.90;;;1.40;;
15633;SDS011;14654;48.898;8.308;2022-11-21T15:47:40;3.67;;;1.80;;
15633;SDS011;14654;48.898;8.308;2022-11-21T15:50:06;3.10;;;1.40;;
15633;SDS011;14654;48.898;8.308;2022-11-21T15:52:42;5.13;;;1.47;;
15633;SDS011;14654;48.898;8.308;2022-11-21T15:55:12;4.87;;;2.00;;
15633;SDS011;14654;48.898;8.308;2022-11-21T15:57:42;4.07;;;2.10;;
15633;SDS011;14654;48.898;8.308;2022-11-21T16:00:08;8.50;;;3.37;;
15633;SDS011;14654;48.898;8.308;2022-11-21T16:02:34;5.60;;;2.43;;
15633;SDS011;14654;48.898;8.308;2022-11-21T16:04:59;3.90;;;1.93;;
15633;SDS011;14654;48.898;8.308;2022-11-21T16:07:24;3.27;;;1.70;;
15633;SDS011;14654;48.898;8.308;2022-11-21T16:09:50;3.73;;;1.70;;
15633;SDS011;14654;48.898;8.308;2022-11-21T16:12:16;4.17;;;1.83;;
15633;SDS011;14654;48.898;8.308;2022-11-21T16:14:41;3.73;;;1.73;;
15633;SDS011;14654;48.898;8.308;2022-11-21T16:17:06;1.87;;;1.30;;
15633;SDS011;14654;48.898;8.308;2022-11-21T16:19:32;4.70;;;1.80;;
15633;SDS011;14654;48.898;8.308;2022-11-21T16:21:57;4.13;;;2.60;;
15633;SDS011;14654;48.898;8.308;2022-11-21T16:24:22;3.30;;;1.93;;
15633;SDS011;14654;48.898;8.308;2022-11-21T16:26:47;4.10;;;2.23;;
15633;SDS011;14654;48.898;8.308;2022-11-21T16:29:17;9.97;;;7.13;;
15633;SDS011;14654;48.898;8.308;2022-11-21T16:31:42;7.10;;;5.27;;
15633;SDS011;14654;48.898;8.308;2022-11-21T16:34:07;7.83;;;3.67;;
15633;SDS011;14654;48.898;8.308;2022-11-21T16:36:33;4.77;;;2.83;;
15633;SDS011;14654;48.898;8.308;2022-11-21T16:38:58;4.00;;;2.20;;
15633;SDS011;14654;48.898;8.308;2022-11-21T16:41:25;3.90;;;2.40;;
15633;SDS011;14654;48.898;8.308;2022-11-21T16:43:52;4.20;;;2.87;;
15633;SDS011;14654;48.898;8.308;2022-11-21T16:46:19;7.03;;;2.83;;
15633;SDS011;14654;48.898;8.308;2022-11-21T16:48:45;5.83;;;2.83;;
15633;SDS011;14654;48.898;8.308;2022-11-21T16:51:12;5.07;;;2.53;;
15633;SDS011;14654;48.898;8.308;2022-11-21T16:53:38;3.90;;;2.70;;
15633;SDS011;14654;48.898;8.308;2022-11-21T16:56:04;6.33;;;3.00;;
15633;SDS011;14654;48.898;8.308;2022-11-21T16:58:29;6.47;;;4.50;;
15633;SDS011;14654;48.898;8.308;2022-11-21T17:00:55;5.67;;;4.87;;
15633;SDS011;14654;48.898;8.308;2022-11-21T17:03:21;5.50;;;4.90;;
15633;SDS011;14654;48.898;8.308;2022-11-21T17:05:59;5.97;;;3.57;;
15633;SDS011;14654;48.898;8.308;2022-11-21T17:08:26;5.80;;;3.73;;
15633;SDS011;14654;48.898;8.308;2022-11-21T17:10:52;8.77;;;5.43;;
15633;SDS011;14654;48.898;8.308;2022-11-21T17:13:17;7.50;;;4.63;;